Cap Portland — A8MQ9 — position and weather

sailwx.info

Track history (hours):
 
Tides and Currents Weather Stations Pressure Air Temp Water Temp Dewpoint Dewpoint Depression Visibility Wind Speed Wind Dir Waves Ship Positions

Cap Portland

Last reported at 2018-Jan-06 22:38 UTC. Time now 2018-Jan-24 03:53 UTC.
Position N 10°19' W 075°36'.
Warning: this ship's position is 17 days out of date.

Length 186 m; beam 30 m; draft 11.3 m.

Type: Ship (hazmat cat A). MMSI: 636016646.

Date/timePositionNaut miles runAvg speedWind from/ knotsBaromVisibWave heightAir tempDewpointWater temp
2018-Jan-06 22:38N 10°19' W 075°36'211.4
2018-Jan-06 22:30N 10°19' W 075°35'510.1
2018-Jan-06 22:00N 10°23' W 075°31'0 0.8
2018-Jan-06 21:28N 10°23' W 075°31'0 0.0
2018-Jan-06 20:55N 10°23' W 075°31'0 0.0
2018-Jan-06 19:43N 10°23' W 075°31'0 0.0
2018-Jan-06 19:25N 10°23' W 075°31'0 0.0
2018-Jan-06 18:55N 10°23' W 075°31'0 0.0
2018-Jan-06 18:25N 10°23' W 075°31'0 0.0
2018-Jan-06 17:55N 10°23' W 075°31'0 0.0
2018-Jan-06 17:28N 10°23' W 075°31'0 0.0
2018-Jan-06 16:55N 10°23' W 075°31'0 0.0
2018-Jan-06 16:28N 10°23' W 075°31'0 0.0
2018-Jan-06 15:57N 10°23' W 075°31'0 0.0
2018-Jan-06 15:21N 10°23' W 075°31'0 0.0
2018-Jan-06 14:57N 10°23' W 075°31'0 0.0
2018-Jan-06 14:27N 10°23' W 075°31'0 0.0
2018-Jan-06 14:00N 10°23' W 075°31'  
2018-Jan-03 22:04N 11°04' W 075°05'314.8
2018-Jan-03 21:53N 11°06' W 075°03'514.6
2018-Jan-03 21:30N 11°08' W 074°58'714.4
2018-Jan-03 21:00N 11°12' W 074°52'713.4
2018-Jan-03 20:30N 11°13' W 074°45'713.6
2018-Jan-03 20:00N 11°13' W 074°38'814.0
2018-Jan-03 19:27N 11°14' W 074°30'14 1.4
2018-Jan-03 09:45N 11°15' W 074°16'611.6
2018-Jan-03 09:16N 11°15' W 074°22'511.7
2018-Jan-03 08:49N 11°16' W 074°27'411.6
2018-Jan-03 08:30N 11°16' W 074°31'5 9.7
2018-Jan-03 08:00N 11°17' W 074°36'0 0.8
2018-Jan-03 07:30N 11°17' W 074°35'0 0.8
2018-Jan-03 07:00N 11°17' W 074°35'0 0.8
2018-Jan-03 06:30N 11°18' W 074°35'0 0.5
2018-Jan-03 05:58N 11°18' W 074°34'0 0.4
2018-Jan-03 05:30N 11°18' W 074°34'0 0.3
2018-Jan-03 05:00N 11°18' W 074°34'0 0.8
2018-Jan-03 04:30N 11°18' W 074°34'0 1.0
2018-Jan-03 04:00N 11°18' W 074°34'1 1.0
2018-Jan-03 03:30N 11°19' W 074°33'1 1.1
2018-Jan-03 03:00N 11°19' W 074°33'1 1.1
2018-Jan-03 02:14N 11°20' W 074°33'0 1.1
2018-Jan-03 02:00N 11°20' W 074°33'1 1.1
2018-Jan-03 01:26N 11°21' W 074°33'0 0.8
2018-Jan-03 01:00N 11°21' W 074°33'4 7.9
2018-Jan-03 00:30N 11°18' W 074°35'510.3
2018-Jan-03 00:00N 11°14' W 074°39'1 1.6
2018-Jan-02 23:30N 11°14' W 074°40'1 1.5
2018-Jan-02 23:00N 11°14' W 074°39'1 1.4
2018-Jan-02 22:30N 11°15' W 074°39'1 1.3
2018-Jan-02 22:00N 11°16' W 074°39'1 1.2
2018-Jan-02 21:30N 11°16' W 074°38'1 1.2
2018-Jan-02 21:00N 11°17' W 074°38'1 1.1
2018-Jan-02 20:30N 11°17' W 074°38'1 1.2
2018-Jan-02 20:00N 11°18' W 074°37'1 1.2
2018-Jan-02 19:30N 11°18' W 074°37'0 0.9
2018-Jan-02 18:59N 11°18' W 074°37'3 6.3
2018-Jan-02 18:29N 11°16' W 074°34'2 3.2
2018-Jan-02 18:00N 11°14' W 074°34'1 1.1
2018-Jan-02 17:30N 11°15' W 074°35'0 1.0
2018-Jan-02 17:00N 11°15' W 074°35'0 0.8
2018-Jan-02 16:30N 11°16' W 074°35'0 0.6
2018-Jan-02 16:00N 11°16' W 074°35'0 0.7
2018-Jan-02 15:30N 11°16' W 074°35'0 0.7
2018-Jan-02 15:00N 11°17' W 074°35'0 0.7
2018-Jan-02 14:30N 11°17' W 074°35'0 0.9
2018-Jan-02 14:00N 11°17' W 074°34'0 0.7
2018-Jan-02 13:30N 11°18' W 074°34'4 7.1
2018-Jan-02 13:00N 11°14' W 074°34'4 8.4
2018-Jan-02 12:30N 11°12' W 074°38'510.9
2018-Jan-02 12:00N 11°11' W 074°44'510.5
2018-Jan-02 11:30N 11°10' W 074°49'5 9.3
2018-Jan-02 11:00N 11°07' W 074°52'611.0
2018-Jan-02 10:30N 11°03' W 074°49'611.8
2018-Jan-02 10:00N 10°58' W 074°45'0 0.3
2018-Jan-02 09:30N 10°58' W 074°46'0 0.0
2018-Jan-02 08:30N 10°58' W 074°46'0 0.0
2018-Jan-02 08:00N 10°58' W 074°46'0 0.0
2018-Jan-02 07:30N 10°58' W 074°46'0 0.0
2018-Jan-02 06:54N 10°58' W 074°46'0 0.0
2018-Jan-02 06:30N 10°58' W 074°46'0 0.0
2018-Jan-02 06:00N 10°58' W 074°46'0 0.0
2018-Jan-02 05:30N 10°58' W 074°46'0 0.0
2018-Jan-02 04:30N 10°58' W 074°46'0 0.0
2018-Jan-02 04:00N 10°58' W 074°46'0 0.0
2018-Jan-02 03:30N 10°58' W 074°46'0 0.1
2018-Jan-02 03:00N 10°58' W 074°45'1 1.4
2018-Jan-02 02:28N 10°59' W 074°46'0 0.0
2018-Jan-02 01:58N 10°59' W 074°46'0 0.0
2018-Jan-02 01:28N 10°59' W 074°46'0 0.0
2018-Jan-02 00:55N 10°59' W 074°46'0 0.0
2018-Jan-02 00:28N 10°59' W 074°46'0 0.0
2018-Jan-01 23:58N 10°59' W 074°46'0 0.0
2018-Jan-01 23:28N 10°59' W 074°46'0 0.0
2018-Jan-01 22:58N 10°59' W 074°46'0 0.0
2018-Jan-01 22:25N 10°59' W 074°46'0 0.0
2018-Jan-01 21:58N 10°59' W 074°46'0 0.0
2018-Jan-01 21:28N 10°59' W 074°46'0 0.0
2018-Jan-01 20:58N 10°59' W 074°46'0 0.0
2018-Jan-01 20:28N 10°59' W 074°46'0 0.0
2018-Jan-01 19:58N 10°59' W 074°46'0 0.0
2018-Jan-01 19:29N 10°59' W 074°46'0 0.7
2018-Jan-01 19:00N 10°59' W 074°46'4 7.8
2018-Jan-01 18:30N 11°02' W 074°48'4 8.7
2018-Jan-01 18:00N 11°06' W 074°51'4 8.0
2018-Jan-01 17:30N 11°07' W 074°55'14 5.7
2018-Jan-01 15:00N 11°07' W 075°09'1 2.0
2018-Jan-01 14:30N 11°08' W 075°09'1 2.4
2018-Jan-01 14:00N 11°08' W 075°07'1 0.7
2018-Jan-01 12:00N 11°08' W 075°09'50 2.6
2017-Dec-31 16:35N 10°23' W 075°31'0 0.0
2017-Dec-31 16:20N 10°23' W 075°31'0 0.0
2017-Dec-31 15:56N 10°23' W 075°31'0 0.0
2017-Dec-31 15:26N 10°23' W 075°31'0 0.0
2017-Dec-31 14:56N 10°23' W 075°31'0 0.0
2017-Dec-31 14:26N 10°23' W 075°31'0 0.0
2017-Dec-31 13:56N 10°23' W 075°31'0 0.0
2017-Dec-31 13:26N 10°23' W 075°31'0 0.0
2017-Dec-31 12:56N 10°23' W 075°31'0 0.0
2017-Dec-31 12:29N 10°23' W 075°31'0 0.0
2017-Dec-31 11:59N 10°23' W 075°31'0 0.0
2017-Dec-31 11:26N 10°23' W 075°31'0 0.0
2017-Dec-31 10:56N 10°23' W 075°31'0 0.2
2017-Dec-31 10:29N 10°23' W 075°31'1 2.3
2017-Dec-31 10:00N 10°22' W 075°32'510.1
2017-Dec-31 09:30N 10°19' W 075°36'4 8.4
2017-Dec-31 09:00N 10°19' W 075°40'510.7
2017-Dec-31 08:30N 10°20' W 075°45'2 0.2
2017-Dec-30 21:29N 10°21' W 075°47'612.4
2017-Dec-30 21:00N 10°26' W 075°43'713.8
2017-Dec-30 20:30N 10°32' W 075°41'917.7
2017-Dec-30 20:00N 10°40' W 075°37'  
Track history (hours):
 
Tides and Currents Weather Stations Pressure Air Temp Water Temp Dewpoint Dewpoint Depression Visibility Wind Speed Wind Dir Waves Ship Positions

Cap Portland

Last reported at 2018-Jan-06 22:38 UTC. Time now 2018-Jan-24 03:53 UTC.
Position N 10°19' W 075°36'.
Warning: this ship's position is 17 days out of date.

Length 186 m; beam 30 m; draft 11.3 m.

Type: Ship (hazmat cat A). MMSI: 636016646.

Date/timePositionNaut miles runAvg speedWind from/ knotsBaromVisibWave heightAir tempDewpointWater temp
2018-Jan-06 22:38N 10°19' W 075°36'211.4
2018-Jan-06 22:30N 10°19' W 075°35'510.1
2018-Jan-06 22:00N 10°23' W 075°31'0 0.8
2018-Jan-06 21:28N 10°23' W 075°31'0 0.0
2018-Jan-06 20:55N 10°23' W 075°31'0 0.0
2018-Jan-06 19:43N 10°23' W 075°31'0 0.0
2018-Jan-06 19:25N 10°23' W 075°31'0 0.0
2018-Jan-06 18:55N 10°23' W 075°31'0 0.0
2018-Jan-06 18:25N 10°23' W 075°31'0 0.0
2018-Jan-06 17:55N 10°23' W 075°31'0 0.0
2018-Jan-06 17:28N 10°23' W 075°31'0 0.0
2018-Jan-06 16:55N 10°23' W 075°31'0 0.0
2018-Jan-06 16:28N 10°23' W 075°31'0 0.0
2018-Jan-06 15:57N 10°23' W 075°31'0 0.0
2018-Jan-06 15:21N 10°23' W 075°31'0 0.0
2018-Jan-06 14:57N 10°23' W 075°31'0 0.0
2018-Jan-06 14:27N 10°23' W 075°31'0 0.0
2018-Jan-06 14:00N 10°23' W 075°31'  
2018-Jan-03 22:04N 11°04' W 075°05'314.8
2018-Jan-03 21:53N 11°06' W 075°03'514.6
2018-Jan-03 21:30N 11°08' W 074°58'714.4
2018-Jan-03 21:00N 11°12' W 074°52'713.4
2018-Jan-03 20:30N 11°13' W 074°45'713.6
2018-Jan-03 20:00N 11°13' W 074°38'814.0
2018-Jan-03 19:27N 11°14' W 074°30'14 1.4
2018-Jan-03 09:45N 11°15' W 074°16'611.6
2018-Jan-03 09:16N 11°15' W 074°22'511.7
2018-Jan-03 08:49N 11°16' W 074°27'411.6
2018-Jan-03 08:30N 11°16' W 074°31'5 9.7
2018-Jan-03 08:00N 11°17' W 074°36'0 0.8
2018-Jan-03 07:30N 11°17' W 074°35'0 0.8
2018-Jan-03 07:00N 11°17' W 074°35'0 0.8
2018-Jan-03 06:30N 11°18' W 074°35'0 0.5
2018-Jan-03 05:58N 11°18' W 074°34'0 0.4
2018-Jan-03 05:30N 11°18' W 074°34'0 0.3
2018-Jan-03 05:00N 11°18' W 074°34'0 0.8
2018-Jan-03 04:30N 11°18' W 074°34'0 1.0
2018-Jan-03 04:00N 11°18' W 074°34'1 1.0
2018-Jan-03 03:30N 11°19' W 074°33'1 1.1
2018-Jan-03 03:00N 11°19' W 074°33'1 1.1
2018-Jan-03 02:14N 11°20' W 074°33'0 1.1
2018-Jan-03 02:00N 11°20' W 074°33'1 1.1
2018-Jan-03 01:26N 11°21' W 074°33'0 0.8
2018-Jan-03 01:00N 11°21' W 074°33'4 7.9
2018-Jan-03 00:30N 11°18' W 074°35'510.3
2018-Jan-03 00:00N 11°14' W 074°39'1 1.6
2018-Jan-02 23:30N 11°14' W 074°40'1 1.5
2018-Jan-02 23:00N 11°14' W 074°39'1 1.4
2018-Jan-02 22:30N 11°15' W 074°39'1 1.3
2018-Jan-02 22:00N 11°16' W 074°39'1 1.2
2018-Jan-02 21:30N 11°16' W 074°38'1 1.2
2018-Jan-02 21:00N 11°17' W 074°38'1 1.1
2018-Jan-02 20:30N 11°17' W 074°38'1 1.2
2018-Jan-02 20:00N 11°18' W 074°37'1 1.2
2018-Jan-02 19:30N 11°18' W 074°37'0 0.9
2018-Jan-02 18:59N 11°18' W 074°37'3 6.3
2018-Jan-02 18:29N 11°16' W 074°34'2 3.2
2018-Jan-02 18:00N 11°14' W 074°34'1 1.1
2018-Jan-02 17:30N 11°15' W 074°35'0 1.0
2018-Jan-02 17:00N 11°15' W 074°35'0 0.8
2018-Jan-02 16:30N 11°16' W 074°35'0 0.6
2018-Jan-02 16:00N 11°16' W 074°35'0 0.7
2018-Jan-02 15:30N 11°16' W 074°35'0 0.7
2018-Jan-02 15:00N 11°17' W 074°35'0 0.7
2018-Jan-02 14:30N 11°17' W 074°35'0 0.9
2018-Jan-02 14:00N 11°17' W 074°34'0 0.7
2018-Jan-02 13:30N 11°18' W 074°34'4 7.1
2018-Jan-02 13:00N 11°14' W 074°34'4 8.4
2018-Jan-02 12:30N 11°12' W 074°38'510.9
2018-Jan-02 12:00N 11°11' W 074°44'510.5
2018-Jan-02 11:30N 11°10' W 074°49'5 9.3
2018-Jan-02 11:00N 11°07' W 074°52'611.0
2018-Jan-02 10:30N 11°03' W 074°49'611.8
2018-Jan-02 10:00N 10°58' W 074°45'0 0.3
2018-Jan-02 09:30N 10°58' W 074°46'0 0.0
2018-Jan-02 08:30N 10°58' W 074°46'0 0.0
2018-Jan-02 08:00N 10°58' W 074°46'0 0.0
2018-Jan-02 07:30N 10°58' W 074°46'0 0.0
2018-Jan-02 06:54N 10°58' W 074°46'0 0.0
2018-Jan-02 06:30N 10°58' W 074°46'0 0.0
2018-Jan-02 06:00N 10°58' W 074°46'0 0.0
2018-Jan-02 05:30N 10°58' W 074°46'0 0.0
2018-Jan-02 04:30N 10°58' W 074°46'0 0.0
2018-Jan-02 04:00N 10°58' W 074°46'0 0.0
2018-Jan-02 03:30N 10°58' W 074°46'0 0.1
2018-Jan-02 03:00N 10°58' W 074°45'1 1.4
2018-Jan-02 02:28N 10°59' W 074°46'0 0.0
2018-Jan-02 01:58N 10°59' W 074°46'0 0.0
2018-Jan-02 01:28N 10°59' W 074°46'0 0.0
2018-Jan-02 00:55N 10°59' W 074°46'0 0.0
2018-Jan-02 00:28N 10°59' W 074°46'0 0.0
2018-Jan-01 23:58N 10°59' W 074°46'0 0.0
2018-Jan-01 23:28N 10°59' W 074°46'0 0.0
2018-Jan-01 22:58N 10°59' W 074°46'0 0.0
2018-Jan-01 22:25N 10°59' W 074°46'0 0.0
2018-Jan-01 21:58N 10°59' W 074°46'0 0.0
2018-Jan-01 21:28N 10°59' W 074°46'0 0.0
2018-Jan-01 20:58N 10°59' W 074°46'0 0.0
2018-Jan-01 20:28N 10°59' W 074°46'0 0.0
2018-Jan-01 19:58N 10°59' W 074°46'0 0.0
2018-Jan-01 19:29N 10°59' W 074°46'0 0.7
2018-Jan-01 19:00N 10°59' W 074°46'4 7.8
2018-Jan-01 18:30N 11°02' W 074°48'4 8.7
2018-Jan-01 18:00N 11°06' W 074°51'4 8.0
2018-Jan-01 17:30N 11°07' W 074°55'14 5.7
2018-Jan-01 15:00N 11°07' W 075°09'1 2.0
2018-Jan-01 14:30N 11°08' W 075°09'1 2.4
2018-Jan-01 14:00N 11°08' W 075°07'1 0.7
2018-Jan-01 12:00N 11°08' W 075°09'50 2.6
2017-Dec-31 16:35N 10°23' W 075°31'0 0.0
2017-Dec-31 16:20N 10°23' W 075°31'0 0.0
2017-Dec-31 15:56N 10°23' W 075°31'0 0.0
2017-Dec-31 15:26N 10°23' W 075°31'0 0.0
2017-Dec-31 14:56N 10°23' W 075°31'0 0.0
2017-Dec-31 14:26N 10°23' W 075°31'0 0.0
2017-Dec-31 13:56N 10°23' W 075°31'0 0.0
2017-Dec-31 13:26N 10°23' W 075°31'0 0.0
2017-Dec-31 12:56N 10°23' W 075°31'0 0.0
2017-Dec-31 12:29N 10°23' W 075°31'0 0.0
2017-Dec-31 11:59N 10°23' W 075°31'0 0.0
2017-Dec-31 11:26N 10°23' W 075°31'0 0.0
2017-Dec-31 10:56N 10°23' W 075°31'0 0.2
2017-Dec-31 10:29N 10°23' W 075°31'1 2.3
2017-Dec-31 10:00N 10°22' W 075°32'510.1
2017-Dec-31 09:30N 10°19' W 075°36'4 8.4
2017-Dec-31 09:00N 10°19' W 075°40'510.7
2017-Dec-31 08:30N 10°20' W 075°45'2 0.2
2017-Dec-30 21:29N 10°21' W 075°47'612.4
2017-Dec-30 21:00N 10°26' W 075°43'713.8
2017-Dec-30 20:30N 10°32' W 075°41'917.7
2017-Dec-30 20:00N 10°40' W 075°37'  

Dump ship's entire track history